»·PEaware :: AAL625 KPSP-KLAX

AAL625 :: KPSP-KLAX

FLIGHT INFORMATION

Flight Status: Arrived
Operator:
American Airlines
More flights by this operator :: More flights under this callsign
Pilot: Gabriel S. (32862)
Aircraft: AIRBUS A320
(A320)
More flights by this aircraft type
Origin: KPSP Palm Springs Intl
United States
Destination: KLAX Los Angeles Intl
United States
More flights between these airports :: More routes between these airports
Route: CATH1 PSP V388 LENHO SEAVU
File this flight plan on PilotEdge
Remarks: RMK / SIMBRIEF
Altitude:
(Current/Filed)
12,000ft
Speed:
(Current/Filed)
349kts
Departed: 07-Jan-21 08:17 PM
Arrived: 07-Jan-21 09:05 PM
Distance/Time
Traveled:
95nm/0:48
Distance/Time
To Go:
Arrived

Flight Plot

Page will automatically refresh every two minutes.

Flight plan parsing failed; only flown route is shown


Map Options




Map Legend


Flown Route
Filed Route
Departure Airport
Arrival Airport
Navaid (VOR, NDB)
Fix

Horizontal Profiles

Position Reports

Time Latitude Longitude Heading Altitude Ground
Speed
07-Jan-21 19:56 33.822771 -116.505864 291 421ft 0kts
07-Jan-21 19:57 33.822771 -116.505864 291 421ft 0kts
07-Jan-21 19:58 33.822771 -116.505864 291 421ft 0kts
07-Jan-21 19:59 33.822771 -116.505864 291 421ft 0kts
07-Jan-21 20:00 33.822771 -116.505864 291 421ft 0kts
07-Jan-21 20:01 33.822771 -116.505864 291 421ft 0kts
07-Jan-21 20:02 33.822771 -116.505864 291 421ft 0kts
07-Jan-21 20:03 33.822771 -116.505864 291 421ft 0kts
07-Jan-21 20:04 33.822771 -116.505864 291 421ft 0kts
07-Jan-21 20:05 33.822771 -116.505864 291 421ft 0kts
07-Jan-21 20:06 33.822771 -116.505864 291 421ft 0kts
07-Jan-21 20:07 33.822771 -116.505864 291 421ft 0kts
07-Jan-21 20:08 33.822771 -116.505863 291 421ft 0kts
07-Jan-21 20:09 33.822513 -116.505345 352 420ft 2kts
07-Jan-21 20:10 33.822279 -116.505493 55 420ft 0kts
07-Jan-21 20:11 33.822279 -116.505493 55 420ft 0kts
07-Jan-21 20:12 33.822279 -116.505493 55 420ft 0kts
07-Jan-21 20:12 33.822279 -116.505493 55 420ft 0kts
07-Jan-21 20:13 33.822643 -116.503442 142 418ft 15kts
07-Jan-21 20:14 33.818730 -116.499965 142 407ft 4kts
07-Jan-21 20:16 33.819550 -116.498647 324 408ft 24kts
07-Jan-21 20:16 33.842217 -116.518998 323 1378ft 158kts
07-Jan-21 20:17 33.880038 -116.553365 322 3711ft 192kts
07-Jan-21 20:18 33.934509 -116.553259 57 5738ft 265kts
07-Jan-21 20:19 33.910608 -116.473196 139 8704ft 291kts
07-Jan-21 20:20 33.855473 -116.396783 117 11049ft 332kts
07-Jan-21 20:21 33.808844 -116.286592 118 11982ft 390kts
07-Jan-21 20:22 33.733165 -116.201168 176 12003ft 382kts
07-Jan-21 20:23 33.652944 -116.265348 256 12012ft 367kts
07-Jan-21 20:24 33.696680 -116.366599 337 12010ft 375kts
07-Jan-21 20:25 33.797596 -116.403577 341 12009ft 375kts
07-Jan-21 20:26 33.880563 -116.470712 290 12010ft 368kts
07-Jan-21 20:27 33.910781 -116.589639 286 12010ft 367kts
07-Jan-21 20:28 33.940780 -116.708684 286 12009ft 366kts
07-Jan-21 20:29 33.945758 -116.825809 267 12010ft 347kts
07-Jan-21 20:30 33.941747 -116.942221 267 12011ft 347kts
07-Jan-21 20:31 33.937589 -117.059824 267 12010ft 347kts
07-Jan-21 20:32 33.933226 -117.177092 267 12011ft 347kts
07-Jan-21 20:33 33.928215 -117.292715 267 12017ft 321kts
07-Jan-21 20:34 33.938136 -117.392706 293 12015ft 300kts
07-Jan-21 20:35 33.971166 -117.485859 288 12017ft 300kts
07-Jan-21 20:36 33.989524 -117.584826 282 11961ft 294kts
07-Jan-21 20:37 34.005728 -117.678419 275 10738ft 281kts
07-Jan-21 20:38 33.998243 -117.771603 263 9354ft 277kts
07-Jan-21 20:39 33.989251 -117.863479 263 8034ft 272kts
07-Jan-21 20:40 33.980445 -117.953560 263 6734ft 268kts
07-Jan-21 20:41 33.973181 -118.040616 263 5494ft 265kts
07-Jan-21 20:42 33.963852 -118.126922 263 4251ft 256kts
07-Jan-21 20:43 33.955362 -118.208233 264 2940ft 239kts
07-Jan-21 20:44 33.947796 -118.281192 263 1806ft 190kts
07-Jan-21 20:45 33.942226 -118.335333 263 882ft 144kts
07-Jan-21 20:46 33.937296 -118.383688 264 905ft 150kts
07-Jan-21 20:47 33.921673 -118.443249 247 2005ft 225kts
07-Jan-21 20:48 33.896963 -118.513184 248 2384ft 226kts
07-Jan-21 20:49 33.851018 -118.550383 150 3018ft 228kts
07-Jan-21 20:50 33.838990 -118.482361 82 3013ft 221kts
07-Jan-21 20:51 33.845574 -118.410702 82 3012ft 221kts
07-Jan-21 20:52 33.852226 -118.337272 82 3011ft 222kts
07-Jan-21 20:53 33.858893 -118.263830 82 3011ft 221kts
07-Jan-21 20:54 33.865545 -118.190802 82 3013ft 221kts
07-Jan-21 20:55 33.872288 -118.117212 82 3013ft 222kts
07-Jan-21 20:56 33.879026 -118.043899 82 3016ft 222kts
07-Jan-21 20:57 33.922051 -118.017770 318 3022ft 223kts
07-Jan-21 20:58 33.952826 -118.082128 292 2802ft 222kts
07-Jan-21 20:59 33.961071 -118.153877 264 2515ft 209kts
07-Jan-21 21:00 33.953856 -118.222154 264 2514ft 203kts
07-Jan-21 21:01 33.947194 -118.287015 263 1683ft 177kts
07-Jan-21 21:02 33.941825 -118.339230 262 821ft 141kts
07-Jan-21 21:03 33.936965 -118.386601 263 127ft 138kts
07-Jan-21 21:04 33.935946 -118.406662 282 131ft 11kts
07-Jan-21 21:05 33.936038 -118.408707 306 134ft 5kts
07-Jan-21 21:06 33.938527 -118.409211 8 136ft 11kts

Navigation Log

Ident Type
Flight plan parsing failed, navigation log unavailable